Time;durP1;ratioP1;P1;durP2;ratioP2;P2;SDS_P1;SDS_P2;PMS_P1;PMS_P2;Temp;Humidity;BMP_temperature;BMP_pressure;BME280_temperature;BME280_humidity;BME280_pressure;Samples;Min_cycle;Max_cycle;Signal;HPM_P1;HPM_P2
2021/12/16 00:32:52;;;;;;;52.03;26.55;;;;;;;2.21;100.00;101390.69;6257686;28;20045;-73
2021/12/16 00:35:53;;;;;;;47.38;26.88;;;;;;;2.07;100.00;101379.59;6273422;28;20045;-73
2021/12/16 00:38:54;;;;;;;48.28;26.35;;;;;;;1.97;100.00;101383.06;6257160;28;20487;-73
2021/12/16 00:42:02;;;;;;;48.30;25.92;;;;;;;1.98;100.00;101384.78;6257151;28;20072;-73
2021/12/16 00:45:43;;;;;;;48.95;27.50;;;;;;;1.88;100.00;101378.81;6274863;28;20080;-73
2021/12/16 00:58:26;;;;;;;51.15;26.42;;;;;;;1.94;100.00;101378.78;6274438;28;20044;-73
2021/12/16 01:02:13;;;;;;;50.88;25.67;;;;;;;1.99;100.00;101378.75;6273955;28;20406;-74
2021/12/16 01:05:31;;;;;;;45.88;24.85;;;;;;;1.99;100.00;101387.34;6273221;28;20056;-74
2021/12/16 01:35:10;;;;;;;45.03;25.83;;;;;;;2.21;100.00;101379.53;6273324;28;20037;-73
2021/12/16 01:50:58;;;;;;;50.22;29.42;;;;;;;2.40;100.00;101383.69;6273316;28;20048;-73
2021/12/16 01:57:34;;;;;;;47.60;27.83;;;;;;;2.35;100.00;101374.31;6272743;28;20041;-73
2021/12/16 02:01:11;;;;;;;44.22;27.63;;;;;;;2.33;100.00;101371.72;6271374;28;20044;-73
2021/12/16 02:04:18;;;;;;;42.17;25.17;;;;;;;2.31;100.00;101363.16;6272140;28;20630;-74
2021/12/16 02:07:50;;;;;;;45.92;26.13;;;;;;;2.39;100.00;101373.44;6272946;28;20049;-74
2021/12/16 02:36:59;;;;;;;54.55;27.35;;;;;;;2.44;100.00;101376.81;6270945;28;20436;-74
2021/12/16 02:40:01;;;;;;;45.42;27.67;;;;;;;2.42;100.00;101374.22;6271146;28;20056;-74
2021/12/16 02:49:11;;;;;;;48.53;26.27;;;;;;;2.54;100.00;101372.47;6270814;28;20064;-73
2021/12/16 02:52:12;;;;;;;43.65;25.23;;;;;;;2.56;100.00;101373.31;6272172;28;20372;-73
2021/12/16 02:55:16;;;;;;;45.80;25.35;;;;;;;2.58;100.00;101364.69;6254574;28;20127;-74
2021/12/16 02:58:17;;;;;;;41.60;24.60;;;;;;;2.57;100.00;101360.41;6270834;28;20045;-74
2021/12/16 03:01:51;;;;;;;41.88;24.88;;;;;;;2.58;100.00;101364.69;6271769;28;20530;-73
2021/12/16 03:04:53;;;;;;;41.30;24.88;;;;;;;2.64;100.00;101366.38;6265025;28;20187;-74
2021/12/16 03:07:54;;;;;;;43.60;25.27;;;;;;;2.65;100.00;101362.91;6272098;28;20075;-73
2021/12/16 03:20:11;;;;;;;41.33;23.90;;;;;;;2.63;100.00;101359.50;6271842;28;20052;-74
2021/12/16 03:30:25;;;;;;;43.37;25.90;;;;;;;2.68;100.00;101357.75;6271652;28;20476;-73
2021/12/16 03:33:23;;;;;;;42.75;23.30;;;;;;;2.70;100.00;101358.59;6268897;28;20065;-74
2021/12/16 03:39:26;;;;;;;37.60;21.48;;;;;;;2.70;100.00;101353.44;6271501;28;20045;-74
2021/12/16 03:42:36;;;;;;;41.20;23.23;;;;;;;2.71;100.00;101357.72;6254025;28;20053;-74
2021/12/16 03:49:20;;;;;;;43.00;23.85;;;;;;;2.64;100.00;101353.50;6271436;28;20052;-73
2021/12/16 03:52:22;;;;;;;38.17;23.02;;;;;;;2.61;100.00;101348.34;6271435;28;20095;-74
2021/12/16 03:55:23;;;;;;;38.57;23.03;;;;;;;2.64;100.00;101348.34;6253941;28;20064;-74
2021/12/16 03:58:24;;;;;;;42.53;23.30;;;;;;;2.42;100.00;101342.47;6271205;28;20044;-74
2021/12/16 04:01:29;;;;;;;49.83;24.70;;;;;;;2.48;100.00;101339.84;6274261;28;20037;-74
2021/12/16 04:04:31;;;;;;;41.33;23.35;;;;;;;2.47;100.00;101350.16;6275821;28;20384;-74
2021/12/16 04:07:34;;;;;;;43.38;23.48;;;;;;;2.53;100.00;101342.38;6275671;28;20480;-74
2021/12/16 04:10:46;;;;;;;42.38;23.98;;;;;;;2.49;100.00;101331.28;6275530;28;20063;-74
2021/12/16 04:13:54;;;;;;;40.88;24.17;;;;;;;2.46;100.00;101328.72;6273916;28;20072;-74
2021/12/16 04:16:57;;;;;;;44.65;24.88;;;;;;;2.52;100.00;101331.25;6275456;28;20373;-74
2021/12/16 04:20:00;;;;;;;41.45;24.27;;;;;;;2.48;100.00;101329.56;6275338;28;20053;-74
2021/12/16 04:23:05;;;;;;;46.28;25.35;;;;;;;2.49;100.00;101330.41;6275455;28;20131;-74
2021/12/16 04:26:06;;;;;;;44.88;25.63;;;;;;;2.50;100.00;101329.53;6275398;28;20045;-74
2021/12/16 04:29:08;;;;;;;41.80;24.15;;;;;;;2.55;100.00;101328.66;6275088;28;20110;-73
2021/12/16 04:32:09;;;;;;;45.45;25.73;;;;;;;2.55;100.00;101332.94;6273940;28;20037;-74
2021/12/16 04:35:10;;;;;;;45.95;25.00;;;;;;;2.52;100.00;101320.94;6273575;28;20049;-74
2021/12/16 04:38:13;;;;;;;40.88;24.70;;;;;;;2.57;100.00;101324.34;6275010;28;20090;-74
2021/12/16 04:41:14;;;;;;;;;;;;;;;2.61;100.00;101326.03;6274312;28;20044;-74
2021/12/16 04:44:16;;;;;;;43.30;23.27;;;;;;;2.65;100.00;101323.41;6257006;28;20291;-74
2021/12/16 04:47:17;;;;;;;42.58;24.92;;;;;;;2.67;100.00;101324.25;6274752;28;20053;-73
2021/12/16 04:50:19;;;;;;;46.20;24.50;;;;;;;2.63;100.00;101311.38;6274772;28;20045;-73
2021/12/16 04:53:20;;;;;;;45.92;25.98;;;;;;;2.64;100.00;101307.09;6278780;28;20044;-74
2021/12/16 04:56:21;;;;;;;49.15;24.85;;;;;;;2.39;100.00;101309.03;6292426;28;20051;-74
2021/12/16 04:59:22;;;;;;;45.72;27.00;;;;;;;2.53;100.00;101311.47;6258939;28;20064;-74
2021/12/16 05:02:25;;;;;;;51.03;27.02;;;;;;;2.55;100.00;101309.75;6299227;28;20497;-74
2021/12/16 05:05:26;;;;;;;46.78;26.75;;;;;;;2.58;100.00;101307.16;6297875;28;20052;-74
2021/12/16 05:08:27;;;;;;;48.97;26.60;;;;;;;2.57;100.00;101301.16;6286096;28;20084;-74
2021/12/16 05:11:29;;;;;;;48.28;26.08;;;;;;;2.59;100.00;101314.00;6256100;28;20101;-75
2021/12/16 05:14:30;;;;;;;44.88;25.88;;;;;;;2.65;100.00;101316.53;6274303;28;20040;-74
2021/12/16 05:17:39;;;;;;;46.75;27.02;;;;;;;2.68;100.00;101313.94;6278014;28;20071;-74
2021/12/16 05:20:43;;;;;;;48.95;27.33;;;;;;;2.66;100.00;101318.25;6273022;28;20048;-74
2021/12/16 05:27:06;;;;;;;50.10;28.40;;;;;;;2.66;100.00;101323.41;6298689;28;20383;-74
2021/12/16 05:30:08;;;;;;;57.72;31.52;;;;;;;2.69;100.00;101330.25;6298325;28;20407;-74
2021/12/16 05:33:11;;;;;;;65.10;32.38;;;;;;;2.76;100.00;101334.47;6280332;28;20075;-74
2021/12/16 05:36:11;;;;;;;55.43;30.90;;;;;;;2.78;100.00;101330.16;6292714;28;20174;-74
2021/12/16 05:39:15;;;;;;;48.88;28.83;;;;;;;2.72;100.00;101333.66;6271285;28;20045;-74
2021/12/16 05:42:16;;;;;;;45.30;27.13;;;;;;;2.70;100.00;101330.25;6271342;28;20099;-74
2021/12/16 05:45:17;;;;;;;52.60;28.08;;;;;;;2.84;100.00;101345.56;6287893;28;20410;-74
2021/12/16 05:48:21;;;;;;;52.78;28.50;;;;;;;2.83;100.00;101334.41;6297299;28;20076;-74
2021/12/16 05:51:27;;;;;;;46.45;27.60;;;;;;;2.90;100.00;101342.94;6295854;28;20049;-74
2021/12/16 05:54:28;;;;;;;50.78;28.13;;;;;;;2.85;100.00;101344.72;6297557;28;20490;-74
2021/12/16 05:57:29;;;;;;;55.67;30.23;;;;;;;2.90;100.00;101347.25;6296885;28;20076;-74
2021/12/16 06:00:38;;;;;;;61.47;36.90;;;;;;;2.87;100.00;101345.56;6296895;28;20387;-74
2021/12/16 06:03:41;;;;;;;59.83;31.90;;;;;;;2.90;100.00;101345.53;6286588;28;20045;-74
2021/12/16 06:06:42;;;;;;;51.92;28.88;;;;;;;2.86;100.00;101351.56;6261877;28;20051;-74
2021/12/16 06:09:44;;;;;;;48.45;26.52;;;;;;;2.90;100.00;101347.25;6280756;28;20472;-74
2021/12/16 06:12:45;;;;;;;50.65;29.40;;;;;;;2.86;100.00;101343.84;6274178;28;20514;-74
2021/12/16 06:28:51;;;;;;;44.40;25.20;;;;;;;2.79;100.00;101353.34;6271002;28;20045;-74
2021/12/16 06:31:53;;;;;;;40.83;24.30;;;;;;;2.78;100.00;101351.66;6271567;28;20063;-74
2021/12/16 06:34:55;;;;;;;41.88;24.45;;;;;;;2.80;100.00;101359.34;6270011;28;20041;-74
2021/12/16 06:37:56;;;;;;;52.22;25.23;;;;;;;2.68;100.00;101354.31;6271205;28;20052;-74
2021/12/16 06:40:57;;;;;;;45.72;25.23;;;;;;;2.69;100.00;101366.34;6289703;28;20095;-74
2021/12/16 06:44:01;;;;;;;47.50;26.67;;;;;;;2.62;100.00;101360.38;6280275;28;20048;-74
2021/12/16 06:47:07;;;;;;;44.70;25.75;;;;;;;2.58;100.00;101369.84;6296136;28;20086;-74
2021/12/16 06:50:12;;;;;;;44.65;26.40;;;;;;;2.64;100.00;101374.09;6294079;28;20040;-74
2021/12/16 06:53:22;;;;;;;43.05;25.80;;;;;;;2.66;100.00;101364.66;6295996;28;20411;-73
2021/12/16 06:56:33;;;;;;;48.42;27.52;;;;;;;2.79;100.00;101373.97;6295790;28;20115;-74
2021/12/16 06:59:39;;;;;;;45.10;27.05;;;;;;;2.79;100.00;101366.25;6295983;28;20049;-74
2021/12/16 07:05:54;;;;;;;46.28;27.50;;;;;;;2.68;100.00;101373.22;6296007;28;20090;-74
2021/12/16 07:08:59;;;;;;;46.47;26.83;;;;;;;2.77;100.00;101369.72;6294644;28;20051;-74
2021/12/16 07:12:00;;;;;;;50.92;27.70;;;;;;;2.86;100.00;101379.09;6295736;28;20051;-74
2021/12/16 07:15:06;;;;;;;49.97;26.90;;;;;;;2.73;100.00;101392.06;6295678;28;20051;-74
2021/12/16 07:18:06;;;;;;;51.33;28.88;;;;;;;2.90;100.00;101385.94;6295827;28;20570;-74
2021/12/16 07:21:08;;;;;;;51.33;28.70;;;;;;;2.98;100.00;101381.56;6277505;28;20056;-74
2021/12/16 07:24:12;;;;;;;66.15;30.45;;;;;;;2.97;100.00;101372.13;6295636;28;20045;-74
2021/12/16 07:27:13;;;;;;;50.50;29.63;;;;;;;3.00;100.00;101369.50;6295474;28;20118;-74
2021/12/16 07:30:17;;;;;;;50.13;29.13;;;;;;;2.93;100.00;101367.88;6277927;28;20036;-74
2021/12/16 07:33:18;;;;;;;57.78;29.75;;;;;;;3.02;100.00;101371.19;6294158;28;20041;-74
2021/12/16 07:36:19;;;;;;;59.50;30.02;;;;;;;3.07;100.00;101365.16;6296793;28;20063;-74
2021/12/16 07:39:29;;;;;;;57.70;31.75;;;;;;;2.90;100.00;101358.41;6300054;28;20402;-74
2021/12/16 07:42:41;;;;;;;61.00;31.45;;;;;;;3.00;100.00;101354.03;6298793;28;20051;-74
2021/12/16 07:45:44;;;;;;;55.75;33.45;;;;;;;2.99;100.00;101358.34;6299980;28;20459;-73
2021/12/16 07:48:45;;;;;;;69.03;34.70;;;;;;;3.01;100.00;101358.34;6299886;28;20411;-74
2021/12/16 07:51:47;;;;;;;63.25;34.50;;;;;;;3.01;100.00;101351.47;6281962;28;20033;-74
2021/12/16 07:54:48;;;;;;;66.13;35.70;;;;;;;3.08;100.00;101351.41;6298545;28;20036;-74
2021/12/16 07:57:50;;;;;;;69.32;36.80;;;;;;;3.11;100.00;101353.94;6298484;28;20052;-74
2021/12/16 08:00:53;;;;;;;68.90;34.30;;;;;;;3.15;100.00;101358.19;6298326;28;20501;-74
2021/12/16 08:03:55;;;;;;;51.78;30.10;;;;;;;3.10;100.00;101359.97;6299593;28;20044;-74
2021/12/16 08:07:04;;;;;;;62.42;31.73;;;;;;;3.02;100.00;101360.03;6299487;28;20048;-74
2021/12/16 08:10:16;;;;;;;81.38;32.13;;;;;;;2.98;100.00;101363.50;6299520;28;20044;-74
2021/12/16 08:13:17;;;;;;;60.88;30.80;;;;;;;3.00;100.00;101367.78;6281572;28;20091;-74
2021/12/16 08:16:22;;;;;;;61.65;29.67;;;;;;;3.13;100.00;101367.69;6299232;28;20041;-74
2021/12/16 08:19:23;;;;;;;62.70;32.60;;;;;;;3.06;100.00;101378.94;6298052;28;20044;-74
2021/12/16 08:22:24;;;;;;;50.60;28.52;;;;;;;3.02;100.00;101370.34;6297928;28;20047;-75
2021/12/16 08:25:28;;;;;;;60.65;32.83;;;;;;;3.03;100.00;101364.34;6297888;28;20056;-74
2021/12/16 08:28:29;;;;;;;55.97;32.30;;;;;;;3.02;100.00;101383.25;6298069;28;20053;-74
2021/12/16 08:31:31;;;;;;;56.70;29.50;;;;;;;2.99;100.00;101389.28;6297584;28;20051;-74
2021/12/16 08:34:34;;;;;;;;;;;;;;;3.01;100.00;101382.41;6299253;28;20051;-74
2021/12/16 08:37:36;;;;;;;57.25;29.20;;;;;;;3.01;100.00;101381.56;6298659;28;20345;-74
2021/12/16 08:40:39;;;;;;;73.20;32.10;;;;;;;2.98;100.00;101384.16;6296664;28;20172;-74
2021/12/16 08:43:41;;;;;;;66.72;32.38;;;;;;;3.05;100.00;101390.97;6278029;28;20564;-74
2021/12/16 08:46:46;;;;;;;64.95;36.00;;;;;;;3.01;100.00;101386.72;6284734;28;20042;-74
2021/12/16 08:49:48;;;;;;;62.40;35.03;;;;;;;3.13;100.00;101393.47;6280296;28;20511;-74
2021/12/16 08:52:49;;;;;;;71.15;36.25;;;;;;;3.12;100.00;101386.63;6268242;28;20471;-74
2021/12/16 08:55:54;;;;;;;59.13;33.22;;;;;;;3.21;100.00;101379.66;6280776;28;20047;-74
2021/12/16 08:58:56;;;;;;;51.75;31.90;;;;;;;3.20;100.00;101392.56;6297234;28;20047;-74
2021/12/16 09:01:58;;;;;;;66.35;32.90;;;;;;;3.21;100.00;101387.41;6298707;28;20040;-75
2021/12/16 09:04:59;;;;;;;70.78;33.42;;;;;;;3.34;100.00;101387.28;6298171;28;20037;-74
2021/12/16 09:08:00;;;;;;;60.85;30.88;;;;;;;3.37;100.00;101375.19;6279506;28;20590;-75
2021/12/16 09:11:05;;;;;;;57.08;29.23;;;;;;;3.40;100.00;101371.72;6272078;28;20047;-74
2021/12/16 09:14:06;;;;;;;56.65;31.05;;;;;;;3.36;100.00;101372.63;6283719;28;20066;-74
2021/12/16 09:17:11;;;;;;;62.08;33.72;;;;;;;3.40;100.00;101374.31;6297897;28;20049;-74
2021/12/16 09:20:12;;;;;;;60.83;33.00;;;;;;;3.42;100.00;101373.41;6297826;28;20487;-75
2021/12/16 09:23:14;;;;;;;53.17;30.30;;;;;;;3.47;100.00;101375.94;6297735;28;20048;-74
2021/12/16 09:26:16;;;;;;;57.90;31.80;;;;;;;3.48;100.00;101372.50;6296521;28;20535;-75
2021/12/16 09:29:17;;;;;;;;;;;;;;;3.53;100.00;101369.88;6297201;28;20089;-74
2021/12/16 09:32:18;;;;;;;60.03;30.83;;;;;;;3.61;100.00;101350.84;6296341;28;19920;-74
2021/12/16 09:35:20;;;;;;;53.75;31.38;;;;;;;3.56;100.00;101355.22;6297295;28;20050;-75
2021/12/16 09:38:22;;;;;;;59.72;31.98;;;;;;;3.54;100.00;101354.38;6296218;28;20051;-75
2021/12/16 09:41:26;;;;;;;56.50;32.90;;;;;;;3.57;100.00;101348.31;6296298;28;20463;-74
2021/12/16 09:44:28;;;;;;;60.75;33.58;;;;;;;3.60;100.00;101349.16;6297186;28;20041;-75
2021/12/16 09:47:28;;;;;;;55.67;31.90;;;;;;;3.56;100.00;101355.22;6296112;28;20044;-75
2021/12/16 09:50:32;;;;;;;55.50;32.33;;;;;;;3.59;100.00;101342.25;6297216;28;20045;-75
2021/12/16 09:53:35;;;;;;;62.70;32.72;;;;;;;3.66;100.00;101342.19;6297051;28;20037;-75
2021/12/16 09:56:39;;;;;;;54.00;30.90;;;;;;;3.63;100.00;101338.78;6296988;28;20037;-75
2021/12/16 09:59:40;;;;;;;57.15;30.73;;;;;;;3.65;100.00;101335.34;6296036;28;20044;-75
2021/12/16 10:02:41;;;;;;;58.33;31.08;;;;;;;3.63;100.00;101330.19;6295692;28;20048;-75
2021/12/16 10:05:41;;;;;;;51.58;30.17;;;;;;;3.71;100.00;101330.09;6271472;28;20057;-74
2021/12/16 10:08:43;;;;;;;58.85;33.13;;;;;;;3.80;100.00;101327.38;6272107;28;20063;-75
2021/12/16 10:11:47;;;;;;;61.63;33.07;;;;;;;3.87;100.00;101326.44;6272001;28;20505;-75
2021/12/16 10:18:03;;;;;;;58.85;33.08;;;;;;;3.86;100.00;101332.47;6295435;28;20486;-75
2021/12/16 10:21:07;;;;;;;53.22;31.40;;;;;;;3.95;100.00;101334.06;6295395;28;20395;-74
2021/12/16 10:24:29;;;;;;;52.45;31.30;;;;;;;4.02;100.00;101322.81;6296550;28;20438;-74
2021/12/16 10:27:30;;;;;;;57.15;32.85;;;;;;;4.00;100.00;101327.97;6296489;28;20064;-75
2021/12/16 10:30:37;;;;;;;69.60;36.83;;;;;;;4.13;100.00;101322.66;6296353;28;20086;-75
2021/12/16 10:33:41;;;;;;;61.95;33.00;;;;;;;4.15;100.00;101318.31;6275958;28;20075;-75
2021/12/16 10:36:47;;;;;;;65.45;36.20;;;;;;;4.18;100.00;101323.41;6271046;28;20067;-75
2021/12/16 10:39:48;;;;;;;72.68;38.83;;;;;;;4.22;100.00;101317.34;6271495;28;20044;-75
2021/12/16 10:42:50;;;;;;;76.45;41.50;;;;;;;4.25;100.00;101312.13;6253540;28;20102;-75
2021/12/16 10:46:08;;;;;;;69.70;40.43;;;;;;;4.25;100.00;101306.97;6271377;28;20048;-75
2021/12/16 10:49:18;;;;;;;63.53;34.53;;;;;;;4.26;100.00;101313.84;6270079;28;20051;-75
2021/12/16 10:52:29;;;;;;;60.63;34.38;;;;;;;4.22;100.00;101296.66;6272102;28;20041;-74
2021/12/16 10:55:31;;;;;;;60.10;34.50;;;;;;;4.22;100.00;101296.66;6278287;28;20048;-74
2021/12/16 10:59:15;;;;;;;63.60;37.45;;;;;;;4.19;100.00;101304.47;6296040;28;20045;-74
2021/12/16 11:02:19;;;;;;;64.38;35.53;;;;;;;4.19;100.00;101301.91;6320854;28;20055;-75
2021/12/16 11:05:24;;;;;;;60.63;35.33;;;;;;;4.13;100.00;101294.22;6294747;28;20480;-74
2021/12/16 11:08:25;;;;;;;65.68;37.03;;;;;;;4.10;100.00;101286.50;6278715;28;20483;-74
2021/12/16 11:11:30;;;;;;;69.93;37.67;;;;;;;4.13;100.00;101289.91;6279793;28;20040;-74
2021/12/16 11:14:31;;;;;;;53.90;32.67;;;;;;;4.14;100.00;101285.59;6287727;28;20068;-75
2021/12/16 11:17:38;;;;;;;61.13;32.10;;;;;;;4.10;100.00;101278.75;6294212;28;20453;-75
2021/12/16 11:20:53;;;;;;;57.70;30.98;;;;;;;4.14;100.00;101283.00;6274814;28;20045;-75
2021/12/16 11:23:54;;;;;;;52.38;31.20;;;;;;;4.15;100.00;101275.25;6293481;28;20116;-75
2021/12/16 11:26:55;;;;;;;58.72;31.45;;;;;;;4.16;100.00;101281.25;6291995;28;20049;-75
2021/12/16 11:29:58;;;;;;;49.97;31.15;;;;;;;4.21;100.00;101271.72;6290249;28;20249;-75
2021/12/16 11:33:11;;;;;;;54.33;30.42;;;;;;;4.19;100.00;101273.47;6275493;28;20103;-75
2021/12/16 11:36:24;;;;;;;50.88;29.27;;;;;;;4.23;100.00;101269.97;6273911;28;20526;-74
2021/12/16 11:39:29;;;;;;;;;;;;;;;4.27;100.00;101260.44;6274711;28;20055;-75
2021/12/16 11:42:30;;;;;;;51.42;28.77;;;;;;;4.28;100.00;101262.13;6275443;28;19920;-75
2021/12/16 11:45:39;;;;;;;57.63;31.50;;;;;;;4.25;100.00;101255.28;6275890;28;20045;-75
2021/12/16 11:48:40;;;;;;;54.50;32.25;;;;;;;4.22;100.00;101260.50;6290042;28;20106;-75
2021/12/16 11:51:46;;;;;;;55.05;32.85;;;;;;;4.22;100.00;101260.50;6283102;28;20120;-74
2021/12/16 11:54:58;;;;;;;68.32;38.33;;;;;;;4.23;100.00;101269.97;6296707;28;20407;-75
2021/12/16 11:58:03;;;;;;;60.45;35.25;;;;;;;4.20;100.00;101259.66;6298273;28;20040;-75
2021/12/16 12:01:20;;;;;;;75.20;40.80;;;;;;;4.15;100.00;101259.75;6273938;28;20484;-75
2021/12/16 12:04:28;;;;;;;63.85;35.60;;;;;;;4.19;100.00;101271.75;6274765;28;20120;-76
2021/12/16 12:07:39;;;;;;;61.42;34.22;;;;;;;4.14;100.00;101270.97;6273558;28;20033;-74
2021/12/16 12:11:02;;;;;;;56.75;33.58;;;;;;;4.14;100.00;101277.84;6273429;28;20054;-74
2021/12/16 12:14:07;;;;;;;;;;;;;;;4.14;100.00;101280.44;6273896;28;20472;-75
2021/12/16 12:17:19;;;;;;;129.18;55.08;;;;;;;4.13;100.00;101269.25;6275211;28;19931;-75
2021/12/16 12:20:28;;;;;;;83.80;42.53;;;;;;;4.15;100.00;101271.81;6273345;28;20102;-75
2021/12/16 12:23:29;;;;;;;64.28;34.17;;;;;;;4.12;100.00;101264.09;6274199;28;20036;-74
2021/12/16 12:26:33;;;;;;;81.40;45.65;;;;;;;4.20;100.00;101263.13;6293942;28;20076;-74
2021/12/16 12:29:37;;;;;;;66.07;36.63;;;;;;;4.18;100.00;101256.25;6297991;28;20040;-75
2021/12/16 12:32:51;;;;;;;62.95;34.17;;;;;;;4.21;100.00;101253.63;6299199;28;20102;-75
2021/12/16 12:35:52;;;;;;;60.72;36.65;;;;;;;4.30;100.00;101262.97;6284415;28;20056;-74
2021/12/16 12:38:53;;;;;;;64.95;37.92;;;;;;;4.27;100.00;101250.97;6256406;28;20045;-74
2021/12/16 12:41:55;;;;;;;65.72;38.38;;;;;;;4.30;100.00;101258.66;6274575;28;20123;-74
2021/12/16 12:44:56;;;;;;;54.58;31.75;;;;;;;4.36;100.00;101255.13;6282999;28;20043;-74
2021/12/16 12:47:59;;;;;;;90.55;48.85;;;;;;;4.31;100.00;101257.78;6299145;28;20093;-75
2021/12/16 12:51:02;;;;;;;110.97;56.35;;;;;;;4.31;100.00;101255.19;6298718;28;20037;-75
2021/12/16 12:54:27;;;;;;;73.68;41.05;;;;;;;4.30;100.00;101250.91;6298705;28;20045;-75
2021/12/16 12:57:34;;;;;;;91.75;53.65;;;;;;;4.31;100.00;101241.44;6279153;28;20040;-74
2021/12/16 13:00:57;;;;;;;64.90;37.33;;;;;;;4.27;100.00;101219.97;6276123;28;20126;-74
2021/12/16 13:04:04;;;;;;;;;;;;;;;4.31;100.00;101229.38;6281778;28;20052;-73
2021/12/16 13:07:08;;;;;;;70.30;35.03;;;;;;;4.32;100.00;101223.31;6298199;28;19973;-75
2021/12/16 13:10:11;;;;;;;62.55;33.67;;;;;;;4.33;100.00;101222.44;6294517;28;20154;-75
2021/12/16 13:16:53;;;;;;;69.70;38.17;;;;;;;4.28;100.00;101226.81;6273152;28;20048;-75
2021/12/16 13:27:05;;;;;;;63.78;33.10;;;;;;;4.33;100.00;101217.28;6294296;28;20502;-74
2021/12/16 13:33:19;;;;;;;59.15;33.90;;;;;;;4.18;100.00;101220.97;6297677;28;20399;-75
2021/12/16 13:36:40;;;;;;;62.33;33.13;;;;;;;4.23;100.00;101226.06;6297189;28;20048;-73
2021/12/16 13:39:45;;;;;;;58.13;33.70;;;;;;;4.14;100.00;101229.63;6297574;28;20037;-74
2021/12/16 13:42:53;;;;;;;59.13;32.63;;;;;;;4.13;100.00;101225.34;6288724;28;20099;-75
2021/12/16 13:46:26;;;;;;;57.42;33.00;;;;;;;4.09;100.00;101225.41;6297397;28;20383;-74
2021/12/16 14:03:02;;;;;;;100.43;46.55;;;;;;;4.05;100.00;101227.19;6283685;28;20403;-75
2021/12/16 14:09:19;;;;;;;145.45;63.85;;;;;;;4.04;100.00;101246.16;6273686;28;20049;-75
2021/12/16 14:23:09;;;;;;;61.80;35.23;;;;;;;4.06;100.00;101253.84;6272074;28;20407;-74
2021/12/16 14:37:23;;;;;;;78.97;39.58;;;;;;;4.14;100.00;101244.25;6295929;28;20051;-74
2021/12/16 14:40:39;;;;;;;60.47;35.67;;;;;;;4.15;100.00;101244.25;6295374;28;20036;-74
2021/12/16 14:43:54;;;;;;;68.22;37.40;;;;;;;4.12;100.00;101240.84;6295047;28;20043;-74
2021/12/16 14:47:15;;;;;;;71.10;37.92;;;;;;;4.12;100.00;101248.59;6296267;28;20094;-75
2021/12/16 14:50:21;;;;;;;68.05;38.65;;;;;;;4.11;100.00;101242.59;6278573;28;20048;-74
2021/12/16 14:53:26;;;;;;;68.57;39.25;;;;;;;4.12;100.00;101244.31;6295013;28;20112;-75
2021/12/16 14:56:36;;;;;;;68.80;38.17;;;;;;;4.11;100.00;101249.50;6294951;28;20414;-74
2021/12/16 14:59:37;;;;;;;71.30;38.78;;;;;;;4.11;100.00;101241.75;6296152;28;20037;-74
2021/12/16 15:02:39;;;;;;;72.25;41.17;;;;;;;4.14;100.00;101260.63;6296168;28;20554;-74
2021/12/16 15:05:44;;;;;;;;;;;;;;;4.16;100.00;101252.84;6296473;28;20474;-73
2021/12/16 15:08:55;;;;;;;70.82;37.17;;;;;;;4.15;100.00;101252.00;6294932;28;19928;-74
2021/12/16 15:12:11;;;;;;;67.55;37.15;;;;;;;4.17;100.00;101255.41;6296012;28;20040;-74
2021/12/16 15:15:30;;;;;;;70.80;39.50;;;;;;;4.16;100.00;101258.00;6296014;28;20475;-74
2021/12/16 15:35:53;;;;;;;90.85;50.35;;;;;;;4.16;100.00;101266.63;6295498;28;20135;-74
2021/12/16 15:39:12;;;;;;;78.93;47.25;;;;;;;4.13;100.00;101264.09;6295455;28;20044;-74
2021/12/16 15:45:45;;;;;;;96.45;54.85;;;;;;;4.15;100.00;101264.06;6295495;28;20395;-74
2021/12/16 15:48:51;;;;;;;109.63;61.97;;;;;;;4.19;100.00;101264.00;6295629;28;20402;-74
2021/12/16 15:51:53;;;;;;;87.63;50.20;;;;;;;4.16;100.00;101265.75;6294239;28;20540;-74
2021/12/16 15:54:56;;;;;;;91.68;51.38;;;;;;;4.16;100.00;101260.59;6278024;28;20067;-74
2021/12/16 15:58:20;;;;;;;92.20;50.58;;;;;;;4.22;100.00;101266.53;6265065;28;20399;-75
2021/12/16 16:01:40;;;;;;;88.50;49.85;;;;;;;4.16;100.00;101265.75;6298777;28;20041;-74
2021/12/16 16:04:42;;;;;;;106.40;58.10;;;;;;;4.08;100.00;101278.81;6298953;28;20052;-74
2021/12/16 16:07:43;;;;;;;90.15;50.05;;;;;;;4.03;100.00;101283.16;6299784;28;20048;-76
2021/12/16 16:10:47;;;;;;;89.43;47.38;;;;;;;4.08;100.00;101271.06;6291554;28;20033;-75
2021/12/16 16:13:53;;;;;;;90.68;48.40;;;;;;;3.95;100.00;101272.09;6286505;28;20126;-74
2021/12/16 16:16:56;;;;;;;91.38;46.08;;;;;;;4.17;100.00;101270.06;6285813;28;20052;-74
2021/12/16 16:19:57;;;;;;;73.95;40.08;;;;;;;4.20;100.00;101273.47;6289883;28;20120;-74
2021/12/16 16:23:05;;;;;;;66.72;39.65;;;;;;;4.24;100.00;101274.25;6276419;28;20051;-74
2021/12/16 16:26:09;;;;;;;64.05;36.83;;;;;;;4.12;100.00;101285.63;6277724;28;20498;-74
2021/12/16 16:29:14;;;;;;;69.28;37.72;;;;;;;4.16;100.00;101294.16;6283059;28;20044;-74
2021/12/16 16:32:16;;;;;;;69.97;39.75;;;;;;;4.14;100.00;101290.75;6274483;28;20049;-74
2021/12/16 16:35:17;;;;;;;66.80;39.05;;;;;;;4.15;100.00;101289.91;6276529;28;20106;-73
2021/12/16 16:38:27;;;;;;;66.78;38.75;;;;;;;4.14;100.00;101286.47;6265315;28;20040;-74
2021/12/16 16:41:31;;;;;;;117.28;56.15;;;;;;;4.13;100.00;101291.66;6272945;28;20044;-74
2021/12/16 16:44:33;;;;;;;150.40;65.78;;;;;;;4.14;100.00;101293.34;6315437;28;20048;-74
2021/12/16 16:47:44;;;;;;;137.38;59.55;;;;;;;4.14;100.00;101290.75;6293063;28;20468;-74
2021/12/16 16:50:45;;;;;;;137.52;66.20;;;;;;;4.15;100.00;101288.16;6286931;28;20106;-74
2021/12/16 16:53:57;;;;;;;125.18;65.22;;;;;;;4.22;100.00;101273.41;6294640;28;20119;-73
2021/12/16 16:57:06;;;;;;;99.32;52.28;;;;;;;4.28;100.00;101265.56;6297412;28;20068;-74
2021/12/16 17:00:23;;;;;;;73.45;40.85;;;;;;;4.27;100.00;101255.28;6299053;28;20387;-74
2021/12/16 17:03:23;;;;;;;83.13;44.20;;;;;;;4.23;100.00;101249.31;6274075;28;20041;-74
2021/12/16 17:06:26;;;;;;;81.53;45.58;;;;;;;4.27;100.00;101252.69;6272626;28;20148;-74
2021/12/16 17:09:34;;;;;;;83.90;45.42;;;;;;;4.21;100.00;101246.72;6272278;28;20509;-74
2021/12/16 17:12:36;;;;;;;78.80;41.83;;;;;;;4.14;100.00;101258.06;6273648;28;20450;-74
2021/12/16 17:19:08;;;;;;;80.72;41.03;;;;;;;4.11;100.00;101258.09;6259893;28;20068;-74
2021/12/16 17:22:26;;;;;;;76.20;41.10;;;;;;;4.11;100.00;101262.41;6280185;28;20060;-74
2021/12/16 17:25:29;;;;;;;77.55;38.67;;;;;;;4.14;100.00;101262.34;6276046;28;20064;-74
2021/12/16 17:28:30;;;;;;;74.15;39.60;;;;;;;4.12;100.00;101270.13;6274134;28;20467;-74
2021/12/16 17:31:34;;;;;;;71.88;38.75;;;;;;;4.15;100.00;101262.31;6290256;28;20509;-74
2021/12/16 17:34:40;;;;;;;74.85;39.15;;;;;;;4.16;100.00;101258.88;6293018;28;20074;-74
2021/12/16 17:37:48;;;;;;;78.63;41.15;;;;;;;4.14;100.00;101267.50;6297295;28;20044;-75
2021/12/16 17:40:54;;;;;;;83.43;44.78;;;;;;;4.14;100.00;101273.56;6296465;28;20446;-75
2021/12/16 17:43:55;;;;;;;90.68;45.03;;;;;;;4.15;100.00;101269.22;6287527;28;20059;-74
2021/12/16 17:47:01;;;;;;;88.13;45.35;;;;;;;4.15;100.00;101261.47;6272616;28;20045;-75
2021/12/16 17:50:06;;;;;;;80.20;41.63;;;;;;;4.14;100.00;101246.84;6272472;28;20080;-74
2021/12/16 17:53:07;;;;;;;76.90;40.90;;;;;;;4.13;100.00;101258.06;6272522;28;20041;-74
2021/12/16 17:56:08;;;;;;;85.32;43.22;;;;;;;4.14;100.00;101262.34;6271265;28;20048;-74
2021/12/16 17:59:09;;;;;;;88.47;47.15;;;;;;;4.16;100.00;101253.72;6270964;28;20123;-75
2021/12/16 18:02:17;;;;;;;77.20;42.38;;;;;;;4.14;100.00;101257.19;6271140;28;20521;-74
2021/12/16 18:05:21;;;;;;;76.32;43.53;;;;;;;4.18;100.00;101262.31;6272171;28;20045;-75